KRAL/RAL METAR and TAF weather

Enter ICAO airport designator
Station Type Date Time Source
KRAL METAR 2020/03/31 09:53 UTC NOAA

KRAL 310953Z AUTO 03005KT 10SM CLR 11/07 A3011 RMK AO2 SLP185 T01110072


Station Type Date Time Source
KRAL Decoded METAR 2020/03/31 09:53 UTC NOAA

RIVERSIDE MUNICIPAL AIRPORT , CA, United States (KRAL) 33-57N 117-27W 252M
Mar 31, 2020 - 05:53 AM EDT / 2020.03.31 0953 UTC
Wind: from the NNE (030 degrees) at 6 MPH (5 KT):0
Visibility: 10 mile(s):0
Sky conditions: clear
Temperature: 52.0 F (11.1 C)
Dew Point: 45.0 F (7.2 C)
Relative Humidity: 76%
Pressure (altimeter): 30.11 in. Hg (1019 hPa)
ob: KRAL 310953Z AUTO 03005KT 10SM CLR 11/07 A3011 RMK AO2 SLP185 T01110072
cycle: 10

Station Type Date Time Source
KRAL TAF UTC NOAA

Error!

Example: see airport list